Time;durP1;ratioP1;P1;durP2;ratioP2;P2;SDS_P1;SDS_P2;PMS_P1;PMS_P2;Temp;Humidity;BMP_temperature;BMP_pressure;BME280_temperature;BME280_humidity;BME280_pressure;Samples;Min_cycle;Max_cycle;Signal;HPM_P1;HPM_P2
2023/08/25 00:01:17;;;;;;;14.93;11.15;;;26.90;66.50;;;;;;5117542;28;20019;-69
2023/08/25 00:03:43;;;;;;;14.40;11.23;;;26.90;66.60;;;;;;5117914;28;20019;-69
2023/08/25 00:06:09;;;;;;;16.33;11.82;;;26.80;66.70;;;;;;5117477;28;20076;-69
2023/08/25 00:08:36;;;;;;;15.13;11.27;;;26.70;66.80;;;;;;5117923;28;20340;-69
2023/08/25 00:11:02;;;;;;;15.10;10.35;;;26.70;67.00;;;;;;5117297;28;20043;-69
2023/08/25 00:13:28;;;;;;;13.05;10.73;;;26.70;67.00;;;;;;5117250;28;20117;-69
2023/08/25 00:15:54;;;;;;;12.70;10.02;;;26.70;66.90;;;;;;5117752;28;20066;-69
2023/08/25 00:18:20;;;;;;;14.52;10.15;;;26.60;66.80;;;;;;5117138;28;20027;-69
2023/08/25 00:20:48;;;;;;;12.93;10.50;;;26.60;66.80;;;;;;5117686;28;20318;-69
2023/08/25 00:23:15;;;;;;;14.40;10.10;;;26.60;66.70;;;;;;5117030;28;20073;-69
2023/08/25 00:25:44;;;;;;;17.08;10.52;;;26.70;66.60;;;;;;5116971;28;20463;-69
2023/08/25 00:28:10;;;;;;;13.50;10.25;;;26.70;66.70;;;;;;5117274;28;20024;-69
2023/08/25 00:30:36;;;;;;;16.20;12.32;;;26.70;66.70;;;;;;5116087;28;20031;-69
2023/08/25 00:33:02;;;;;;;15.23;11.45;;;26.70;66.70;;;;;;5117139;28;20444;-69
2023/08/25 00:35:28;;;;;;;13.00;10.55;;;26.70;66.70;;;;;;5117401;28;20464;-69
2023/08/25 00:37:54;;;;;;;16.85;11.45;;;26.70;66.80;;;;;;5116773;28;20149;-69
2023/08/25 00:40:20;;;;;;;16.60;11.45;;;26.70;66.80;;;;;;5116802;28;20019;-69
2023/08/25 00:42:46;;;;;;;16.70;11.98;;;26.80;66.80;;;;;;5116898;28;20034;-69
2023/08/25 00:45:12;;;;;;;15.73;11.55;;;26.70;66.90;;;;;;5116699;28;20077;-69
2023/08/25 00:47:39;;;;;;;15.43;11.30;;;26.70;66.90;;;;;;5115651;28;20015;-69
2023/08/25 00:50:08;;;;;;;17.50;13.35;;;26.70;67.00;;;;;;5116581;28;20024;-69
2023/08/25 00:52:35;;;;;;;17.58;12.45;;;26.60;67.10;;;;;;5116966;28;20059;-69
2023/08/25 00:55:01;;;;;;;19.30;12.50;;;26.60;67.10;;;;;;5116982;28;20061;-69
2023/08/25 00:57:27;;;;;;;14.77;11.43;;;26.50;67.30;;;;;;5116301;28;20023;-69
2023/08/25 00:59:53;;;;;;;14.25;10.93;;;26.50;67.50;;;;;;5116311;28;20039;-69
2023/08/25 01:02:19;;;;;;;17.77;12.48;;;26.40;67.60;;;;;;5116485;28;20027;-69
2023/08/25 01:04:45;;;;;;;15.27;11.73;;;26.40;67.70;;;;;;5116242;28;20057;-69
2023/08/25 01:07:11;;;;;;;17.58;13.10;;;26.40;67.90;;;;;;5116059;28;20333;-69
2023/08/25 01:09:37;;;;;;;16.90;12.50;;;26.30;68.00;;;;;;5116150;28;20073;-69
2023/08/25 01:12:08;;;;;;;18.85;13.35;;;26.30;67.90;;;;;;5116067;28;20367;-69
2023/08/25 01:15:05;;;;;;;17.83;13.35;;;26.20;68.10;;;;;;5116256;28;20395;-69
2023/08/25 01:17:57;;;;;;;19.00;13.90;;;26.20;68.30;;;;;;5116270;28;20028;-69
2023/08/25 01:20:25;;;;;;;16.55;13.00;;;26.10;68.60;;;;;;5116242;28;20024;-69
2023/08/25 01:23:17;;;;;;;17.63;14.18;;;26.10;68.40;;;;;;5114897;28;20360;-69
2023/08/25 01:25:44;;;;;;;17.20;13.80;;;26.00;68.60;;;;;;5115909;28;20022;-69
2023/08/25 01:28:10;;;;;;;16.55;13.32;;;26.00;68.70;;;;;;5115947;28;20032;-69
2023/08/25 01:30:37;;;;;;;17.88;13.00;;;26.00;68.70;;;;;;5116487;28;20333;-69
2023/08/25 01:33:04;;;;;;;17.75;14.30;;;25.90;68.70;;;;;;5116085;28;20032;-69
2023/08/25 01:35:42;;;;;;;15.73;11.70;;;25.90;69.10;;;;;;5116402;28;20020;-69
2023/08/25 01:38:23;;;;;;;16.40;13.07;;;25.90;68.90;;;;;;5115802;28;20034;-69
2023/08/25 01:41:01;;;;;;;16.05;12.10;;;25.90;68.80;;;;;;5116384;28;20047;-69
2023/08/25 01:43:32;;;;;;;16.67;12.05;;;25.90;68.70;;;;;;5116311;28;20038;-69
2023/08/25 01:45:59;;;;;;;17.73;12.65;;;25.90;68.80;;;;;;5116046;28;20030;-69
2023/08/25 01:48:28;;;;;;;17.58;13.40;;;26.00;68.60;;;;;;5116242;28;20024;-69
2023/08/25 01:50:54;;;;;;;16.17;13.75;;;26.00;68.90;;;;;;5115636;28;20040;-69
2023/08/25 01:53:20;;;;;;;18.48;13.38;;;26.00;68.90;;;;;;5116134;28;20023;-69
2023/08/25 01:55:46;;;;;;;17.42;11.85;;;26.00;68.80;;;;;;5115638;28;20019;-69
2023/08/25 01:58:14;;;;;;;17.20;13.45;;;26.00;68.80;;;;;;5115818;28;20038;-69
2023/08/25 02:00:40;;;;;;;13.77;11.65;;;25.90;68.80;;;;;;5116167;28;20069;-69
2023/08/25 02:03:06;;;;;;;15.90;11.82;;;25.90;68.80;;;;;;5115964;28;20028;-69
2023/08/25 02:05:32;;;;;;;16.95;11.55;;;25.90;68.70;;;;;;5119486;28;20436;-69
2023/08/25 02:07:58;;;;;;;16.30;11.68;;;25.90;68.70;;;;;;5119776;28;20140;-69
2023/08/25 02:10:24;;;;;;;16.42;11.63;;;25.90;68.70;;;;;;5119704;28;20513;-69
2023/08/25 02:12:49;;;;;;;17.30;12.13;;;25.90;68.50;;;;;;5119575;28;20034;-69
2023/08/25 02:15:15;;;;;;;16.15;11.80;;;25.90;68.50;;;;;;5119572;28;20024;-69
2023/08/25 02:17:41;;;;;;;15.07;11.60;;;25.90;68.40;;;;;;5119994;28;20496;-69
2023/08/25 02:20:10;;;;;;;18.50;13.07;;;25.90;68.40;;;;;;5118912;28;20016;-69
2023/08/25 02:22:37;;;;;;;18.23;12.00;;;25.90;68.60;;;;;;5119720;28;20040;-69
2023/08/25 02:25:04;;;;;;;17.83;12.05;;;25.90;68.50;;;;;;5119662;28;20020;-69
2023/08/25 02:27:30;;;;;;;16.33;12.60;;;25.90;68.40;;;;;;5119904;28;20027;-69
2023/08/25 02:29:56;;;;;;;17.20;11.82;;;25.90;68.60;;;;;;5119865;28;20023;-69
2023/08/25 02:32:22;;;;;;;17.42;12.02;;;25.80;68.40;;;;;;5119817;28;20336;-69
2023/08/25 02:34:48;;;;;;;16.60;11.15;;;25.80;68.30;;;;;;5118232;28;20016;-69
2023/08/25 02:37:14;;;;;;;20.17;12.07;;;25.80;68.30;;;;;;5119412;28;20069;-69
2023/08/25 02:39:40;;;;;;;17.33;12.30;;;25.80;68.30;;;;;;5119298;28;20016;-69
2023/08/25 02:42:06;;;;;;;18.60;12.70;;;25.80;68.40;;;;;;5119381;28;20023;-69
2023/08/25 02:44:32;;;;;;;15.80;11.93;;;25.70;68.50;;;;;;5119027;28;20016;-69
2023/08/25 02:46:59;;;;;;;16.15;11.63;;;25.80;68.80;;;;;;5119107;28;20099;-69
2023/08/25 02:49:25;;;;;;;16.40;11.65;;;25.70;68.90;;;;;;5118001;28;20047;-69
2023/08/25 02:51:51;;;;;;;15.68;11.57;;;25.70;68.80;;;;;;5118662;28;20495;-69
2023/08/25 02:54:17;;;;;;;17.85;10.85;;;25.60;68.90;;;;;;5118760;28;20024;-69
2023/08/25 02:56:42;;;;;;;14.73;10.95;;;25.70;68.70;;;;;;5119015;28;20024;-69
2023/08/25 02:59:08;;;;;;;15.57;11.43;;;25.60;68.70;;;;;;5117689;28;20390;-69
2023/08/25 03:01:36;;;;;;;15.23;11.30;;;25.60;68.70;;;;;;5118692;28;20065;-69
2023/08/25 03:04:02;;;;;;;16.30;10.88;;;25.70;68.60;;;;;;5118486;28;20456;-69
2023/08/25 03:06:28;;;;;;;13.68;10.20;;;25.60;68.60;;;;;;5118587;28;20090;-69
2023/08/25 03:08:54;;;;;;;15.27;10.32;;;25.60;68.70;;;;;;5118582;28;20023;-69
2023/08/25 03:11:20;;;;;;;20.83;11.90;;;25.50;68.70;;;;;;5118466;28;20042;-69
2023/08/25 03:13:46;;;;;;;17.75;11.20;;;25.50;68.80;;;;;;5118675;28;20051;-69
2023/08/25 03:16:12;;;;;;;12.45;10.10;;;25.50;68.80;;;;;;5118933;28;20085;-69
2023/08/25 03:18:38;;;;;;;14.73;9.90;;;25.40;68.80;;;;;;5118843;28;20062;-69
2023/08/25 03:21:05;;;;;;;15.98;11.52;;;25.50;68.90;;;;;;5118359;28;20024;-69
2023/08/25 03:23:31;;;;;;;14.32;9.63;;;25.40;68.90;;;;;;5117300;28;20128;-69
2023/08/25 03:25:57;;;;;;;14.80;9.93;;;25.40;69.00;;;;;;5118288;28;20159;-69
2023/08/25 03:28:23;;;;;;;14.15;9.63;;;25.40;69.10;;;;;;5118212;28;20099;-69
2023/08/25 03:30:53;;;;;;;13.80;9.88;;;25.40;69.10;;;;;;5118149;28;20061;-69
2023/08/25 03:33:19;;;;;;;14.15;10.15;;;25.40;69.20;;;;;;5118296;28;20059;-69
2023/08/25 03:35:45;;;;;;;13.88;9.60;;;25.40;69.30;;;;;;5118008;28;20452;-69
2023/08/25 03:38:11;;;;;;;16.67;11.05;;;25.40;69.20;;;;;;5117958;28;20063;-69
2023/08/25 03:40:37;;;;;;;17.90;10.85;;;25.40;69.30;;;;;;5118484;28;20410;-69
2023/08/25 03:43:03;;;;;;;14.65;10.48;;;25.30;69.40;;;;;;5117851;28;20055;-69
2023/08/25 03:45:29;;;;;;;14.90;10.55;;;25.30;69.50;;;;;;5118123;28;20028;-69
2023/08/25 03:47:55;;;;;;;14.70;9.40;;;25.30;69.40;;;;;;5118080;28;20106;-69
2023/08/25 03:50:21;;;;;;;12.30;9.00;;;25.30;69.40;;;;;;5117490;28;20097;-69
2023/08/25 03:52:49;;;;;;;13.60;9.50;;;25.30;69.30;;;;;;5117974;28;20044;-69
2023/08/25 03:55:15;;;;;;;13.38;9.48;;;25.30;69.10;;;;;;5117624;28;20028;-69
2023/08/25 03:57:41;;;;;;;15.95;9.77;;;25.40;69.00;;;;;;5117554;28;20033;-69
2023/08/25 04:00:08;;;;;;;13.60;8.90;;;25.30;69.00;;;;;;5117553;28;20019;-69
2023/08/25 04:02:34;;;;;;;13.13;9.07;;;25.30;69.00;;;;;;5117488;28;20016;-69
2023/08/25 04:05:00;;;;;;;14.45;8.40;;;25.20;69.00;;;;;;5117670;28;20038;-69
2023/08/25 04:07:26;;;;;;;13.55;9.73;;;25.20;68.90;;;;;;5117948;28;20027;-69
2023/08/25 04:09:55;;;;;;;13.50;8.63;;;25.20;68.90;;;;;;5117353;28;20048;-69
2023/08/25 04:12:21;;;;;;;14.27;9.88;;;25.20;68.90;;;;;;5117237;28;20031;-69
2023/08/25 04:14:46;;;;;;;14.82;9.70;;;25.20;68.90;;;;;;5117182;28;20035;-69
2023/08/25 04:17:12;;;;;;;13.18;9.18;;;25.20;68.80;;;;;;5117221;28;20023;-69
2023/08/25 04:19:38;;;;;;;15.20;9.55;;;25.20;68.80;;;;;;5117367;28;20024;-69
2023/08/25 04:22:04;;;;;;;17.50;10.18;;;25.20;68.70;;;;;;5117058;28;20035;-69
2023/08/25 04:24:30;;;;;;;14.48;9.80;;;25.10;68.70;;;;;;5117028;28;20026;-69
2023/08/25 04:26:56;;;;;;;13.90;8.95;;;25.10;68.80;;;;;;5116472;28;20027;-69
2023/08/25 04:29:22;;;;;;;13.90;8.70;;;25.10;68.80;;;;;;5115973;28;20024;-69
2023/08/25 04:31:48;;;;;;;16.40;8.70;;;25.10;68.70;;;;;;5117162;28;20057;-69
2023/08/25 04:34:14;;;;;;;19.52;10.35;;;25.20;68.60;;;;;;5117069;28;20028;-69
2023/08/25 04:36:40;;;;;;;15.10;9.10;;;25.20;68.70;;;;;;5116864;28;20073;-69
2023/08/25 04:39:06;;;;;;;13.10;8.95;;;25.20;68.50;;;;;;5116770;28;20055;-69
2023/08/25 04:41:32;;;;;;;12.50;8.80;;;25.20;68.50;;;;;;5116706;28;20409;-69
2023/08/25 04:43:58;;;;;;;12.38;8.90;;;25.20;68.40;;;;;;5116640;28;20073;-69
2023/08/25 04:46:24;;;;;;;12.02;8.80;;;25.20;68.40;;;;;;5116655;28;20028;-69
2023/08/25 04:48:50;;;;;;;13.20;8.90;;;25.30;68.30;;;;;;5116808;28;20353;-69
2023/08/25 04:51:16;;;;;;;11.40;8.32;;;25.30;68.30;;;;;;5116451;28;20512;-69
2023/08/25 04:53:42;;;;;;;15.15;9.90;;;25.30;68.10;;;;;;5116702;28;20038;-69
2023/08/25 04:56:08;;;;;;;17.08;10.15;;;25.40;67.90;;;;;;5116426;28;20031;-69
2023/08/25 04:58:34;;;;;;;11.70;9.38;;;25.40;67.90;;;;;;5116628;28;20052;-69
2023/08/25 05:01:00;;;;;;;16.85;9.88;;;25.50;67.70;;;;;;5116926;28;20425;-69
2023/08/25 05:03:26;;;;;;;13.93;9.48;;;25.50;67.60;;;;;;5116293;28;20024;-69
2023/08/25 05:05:52;;;;;;;16.75;10.63;;;25.60;67.40;;;;;;5116313;28;20106;-69
2023/08/25 05:08:18;;;;;;;15.13;10.25;;;25.60;67.30;;;;;;5116226;28;20097;-69
2023/08/25 05:10:43;;;;;;;16.00;9.85;;;25.70;67.10;;;;;;5116521;28;20051;-69
2023/08/25 05:13:09;;;;;;;16.85;9.73;;;25.80;67.00;;;;;;5116579;28;20023;-69
2023/08/25 05:15:36;;;;;;;15.20;9.95;;;25.90;66.80;;;;;;5116209;28;20034;-69
2023/08/25 05:18:02;;;;;;;17.90;9.95;;;26.00;66.50;;;;;;5116083;28;20012;-69
2023/08/25 05:20:28;;;;;;;15.15;10.30;;;26.40;66.00;;;;;;5116102;28;20023;-69
2023/08/25 05:22:53;;;;;;;15.90;10.82;;;27.00;64.60;;;;;;5115055;28;20020;-69
2023/08/25 05:25:23;;;;;;;16.90;9.48;;;27.60;63.10;;;;;;5116005;28;20043;-69
2023/08/25 05:27:48;;;;;;;15.88;9.93;;;28.10;61.90;;;;;;5116203;28;20027;-69
2023/08/25 05:30:15;;;;;;;14.63;9.50;;;28.80;60.50;;;;;;5115947;28;20103;-69
2023/08/25 05:32:41;;;;;;;14.32;9.55;;;29.30;59.20;;;;;;5116117;28;20313;-69
2023/08/25 05:35:08;;;;;;;15.52;9.80;;;29.90;58.00;;;;;;5116111;28;20433;-69
2023/08/25 05:37:34;;;;;;;15.10;9.52;;;30.80;56.20;;;;;;5116283;28;20019;-69
2023/08/25 05:40:00;;;;;;;14.45;8.82;;;31.60;54.90;;;;;;5115516;28;20073;-69
2023/08/25 05:42:27;;;;;;;15.73;9.45;;;32.40;53.40;;;;;;5116308;28;20066;-69
2023/08/25 05:44:54;;;;;;;13.50;8.13;;;33.40;51.80;;;;;;5115653;28;20398;-71
2023/08/25 05:47:20;;;;;;;12.52;9.07;;;34.20;50.20;;;;;;5115681;28;20038;-71
2023/08/25 05:49:46;;;;;;;14.25;8.73;;;35.20;48.60;;;;;;5115134;28;20019;-71
2023/08/25 05:52:12;;;;;;;73.63;15.50;;;36.00;47.30;;;;;;5115582;28;20055;-71
2023/08/25 05:54:38;;;;;;;18.13;9.98;;;36.70;45.10;;;;;;5115657;28;20444;-72
2023/08/25 05:57:04;;;;;;;15.02;9.32;;;37.20;43.80;;;;;;5115645;28;20104;-71
2023/08/25 05:59:34;;;;;;;17.50;9.38;;;37.80;42.80;;;;;;5115516;28;20149;-72
2023/08/25 06:02:00;;;;;;;12.68;8.93;;;38.50;42.50;;;;;;5114662;28;20039;-73
2023/08/25 06:04:26;;;;;;;17.75;9.05;;;39.20;40.90;;;;;;5115658;28;20016;-71
2023/08/25 06:06:52;;;;;;;12.95;8.10;;;39.90;40.50;;;;;;5115844;28;20019;-70
2023/08/25 06:09:18;;;;;;;15.57;8.70;;;40.70;40.00;;;;;;5114575;28;20020;-71
2023/08/25 06:11:45;;;;;;;11.70;7.90;;;41.50;39.10;;;;;;5115790;28;20110;-69
2023/08/25 06:14:12;;;;;;;11.13;8.07;;;42.00;38.10;;;;;;5114411;28;20028;-68
2023/08/25 06:16:41;;;;;;;12.90;8.73;;;42.50;37.40;;;;;;5115455;28;20063;-66
2023/08/25 06:19:08;;;;;;;12.02;8.60;;;42.90;36.60;;;;;;5115248;28;20347;-68
2023/08/25 06:21:34;;;;;;;13.45;8.48;;;43.40;36.00;;;;;;5115706;28;20034;-68
2023/08/25 06:24:03;;;;;;;10.65;7.28;;;43.90;35.20;;;;;;5115374;28;20081;-68
2023/08/25 06:26:29;;;;;;;10.70;8.27;;;44.50;34.70;;;;;;5115433;28;20016;-68
2023/08/25 06:28:56;;;;;;;13.38;7.75;;;45.10;34.10;;;;;;5115901;28;20429;-68
2023/08/25 06:31:23;;;;;;;12.43;7.63;;;45.60;33.50;;;;;;5115288;28;20455;-67
2023/08/25 06:33:49;;;;;;;12.35;7.82;;;46.10;33.00;;;;;;5115432;28;20023;-67
2023/08/25 06:36:15;;;;;;;10.60;8.13;;;46.70;32.50;;;;;;5115570;28;20160;-69
2023/08/25 06:38:41;;;;;;;11.15;7.60;;;47.10;31.60;;;;;;5115485;28;20028;-70
2023/08/25 06:41:08;;;;;;;11.95;8.00;;;47.50;31.20;;;;;;5115309;28;20030;-69
2023/08/25 06:43:34;;;;;;;10.63;8.18;;;47.80;30.90;;;;;;5115169;28;20036;-69
2023/08/25 06:46:01;;;;;;;11.38;7.88;;;48.20;30.50;;;;;;5114285;28;20031;-69
2023/08/25 06:48:27;;;;;;;12.43;8.45;;;48.50;30.10;;;;;;5114229;28;20349;-69
2023/08/25 06:50:53;;;;;;;12.38;9.27;;;48.90;29.70;;;;;;5115911;28;20055;-69
2023/08/25 06:53:19;;;;;;;11.70;7.95;;;49.20;29.00;;;;;;5119434;28;20032;-69
2023/08/25 06:55:46;;;;;;;12.07;7.78;;;49.10;29.00;;;;;;5119417;28;20032;-69
2023/08/25 06:58:12;;;;;;;9.35;6.88;;;49.20;28.80;;;;;;5119461;28;20102;-69
2023/08/25 07:00:38;;;;;;;12.05;8.60;;;49.50;28.70;;;;;;5119297;28;20107;-69
2023/08/25 07:03:04;;;;;;;11.50;8.25;;;49.60;28.40;;;;;;5119220;28;20061;-69
2023/08/25 07:05:30;;;;;;;10.25;8.50;;;49.60;28.10;;;;;;5119295;28;20031;-69
2023/08/25 07:07:56;;;;;;;11.07;8.40;;;49.40;27.90;;;;;;5118715;28;20026;-69
2023/08/25 07:10:23;;;;;;;10.55;7.35;;;49.40;27.90;;;;;;5118896;28;20054;-69
2023/08/25 07:12:49;;;;;;;11.48;7.78;;;49.10;27.90;;;;;;5118525;28;20412;-69
2023/08/25 07:15:14;;;;;;;12.10;8.15;;;48.90;28.00;;;;;;5118566;28;20110;-69
2023/08/25 07:17:41;;;;;;;14.43;8.48;;;48.90;27.40;;;;;;5118660;28;20027;-69
2023/08/25 07:20:08;;;;;;;14.05;8.40;;;49.00;27.30;;;;;;5118665;28;20035;-69
2023/08/25 07:22:34;;;;;;;13.38;7.60;;;48.90;27.00;;;;;;5118382;28;20448;-69
2023/08/25 07:25:00;;;;;;;13.05;8.32;;;48.40;27.10;;;;;;5118540;28;20325;-69
2023/08/25 07:27:26;;;;;;;10.93;7.47;;;47.20;27.80;;;;;;5118892;28;20030;-69
2023/08/25 07:29:53;;;;;;;13.82;9.25;;;45.70;28.90;;;;;;5118263;28;20055;-69
2023/08/25 07:32:20;;;;;;;13.05;8.57;;;44.30;30.00;;;;;;5118462;28;20043;-69
2023/08/25 07:34:46;;;;;;;12.00;8.35;;;42.50;31.60;;;;;;5118390;28;20058;-69
2023/08/25 07:37:13;;;;;;;12.00;9.02;;;41.60;33.00;;;;;;5118728;28;20055;-69
2023/08/25 07:39:39;;;;;;;12.88;8.82;;;41.00;33.80;;;;;;5118359;28;20362;-69
2023/08/25 07:42:06;;;;;;;12.85;8.85;;;40.40;34.40;;;;;;5118396;28;20095;-69
2023/08/25 07:44:32;;;;;;;13.27;9.18;;;40.00;34.80;;;;;;5117932;28;20026;-69
2023/08/25 07:46:58;;;;;;;13.35;9.40;;;39.60;35.20;;;;;;5118248;28;20429;-69
2023/08/25 07:49:24;;;;;;;12.60;8.73;;;39.00;36.10;;;;;;5118153;28;20122;-68
2023/08/25 07:51:50;;;;;;;12.73;8.38;;;38.20;37.10;;;;;;5117781;28;20047;-68
2023/08/25 07:54:16;;;;;;;12.38;8.55;;;37.50;38.20;;;;;;5117720;28;20520;-69
2023/08/25 07:56:42;;;;;;;13.75;8.55;;;37.20;39.00;;;;;;5118240;28;20023;-69
2023/08/25 07:59:08;;;;;;;13.18;8.90;;;37.10;39.30;;;;;;5117863;28;20093;-69
2023/08/25 08:01:34;;;;;;;12.57;8.23;;;37.10;39.50;;;;;;5117375;28;20042;-69
2023/08/25 08:04:00;;;;;;;12.77;8.73;;;37.20;39.50;;;;;;5117462;28;20445;-69
2023/08/25 08:06:27;;;;;;;11.85;8.43;;;37.20;39.40;;;;;;5117548;28;20054;-69
2023/08/25 08:08:52;;;;;;;12.13;8.20;;;37.10;39.60;;;;;;5116488;28;20159;-69
2023/08/25 08:11:18;;;;;;;13.98;8.80;;;36.90;40.00;;;;;;5117474;28;20102;-69
2023/08/25 08:13:44;;;;;;;12.02;7.90;;;36.80;40.40;;;;;;5117606;28;20039;-69
2023/08/25 08:16:10;;;;;;;11.07;8.25;;;36.70;40.60;;;;;;5117922;28;20054;-69
2023/08/25 08:18:36;;;;;;;13.85;9.38;;;36.70;40.50;;;;;;5117252;28;20441;-69
2023/08/25 08:21:02;;;;;;;13.38;8.68;;;36.60;41.00;;;;;;5117792;28;20122;-69
2023/08/25 08:23:29;;;;;;;11.85;7.90;;;36.40;41.10;;;;;;5117414;28;20034;-68
2023/08/25 08:25:55;;;;;;;14.05;8.25;;;36.40;41.30;;;;;;5116208;28;20020;-68
2023/08/25 08:28:22;;;;;;;12.32;8.23;;;36.40;41.40;;;;;;5117668;28;20360;-68
2023/08/25 08:30:48;;;;;;;14.90;8.50;;;36.50;41.40;;;;;;5117110;28;20504;-69
2023/08/25 08:33:14;;;;;;;15.65;8.63;;;36.60;41.30;;;;;;5116982;28;20050;-68
2023/08/25 08:35:40;;;;;;;12.88;8.70;;;36.60;41.30;;;;;;5116970;28;20326;-68
2023/08/25 08:38:06;;;;;;;10.05;7.75;;;36.70;41.30;;;;;;5117332;28;20076;-68
2023/08/25 08:40:32;;;;;;;10.93;7.85;;;36.80;41.50;;;;;;5116878;28;20027;-68
2023/08/25 08:43:02;;;;;;;11.65;8.10;;;36.80;41.30;;;;;;5116776;28;20073;-68
2023/08/25 08:45:33;;;;;;;14.40;8.45;;;36.90;41.20;;;;;;5116778;28;20069;-68
2023/08/25 08:48:03;;;;;;;18.25;9.57;;;37.00;41.20;;;;;;5117326;28;20023;-68
2023/08/25 08:50:33;;;;;;;15.95;9.88;;;37.00;41.20;;;;;;5116472;28;20057;-68
2023/08/25 08:53:01;;;;;;;12.38;9.15;;;36.70;41.40;;;;;;5116932;28;20040;-68
2023/08/25 08:55:27;;;;;;;10.77;7.93;;;36.60;41.60;;;;;;5116704;28;20104;-68
2023/08/25 08:57:53;;;;;;;12.20;8.57;;;36.50;41.90;;;;;;5116769;28;20030;-68
2023/08/25 09:00:20;;;;;;;11.80;8.55;;;36.50;41.70;;;;;;5116544;28;20012;-68
2023/08/25 09:02:53;;;;;;;15.88;10.10;;;36.60;41.60;;;;;;5116666;28;20157;-68
2023/08/25 09:05:29;;;;;;;10.75;8.30;;;36.70;41.80;;;;;;5116453;28;20330;-68
2023/08/25 09:08:07;;;;;;;10.27;8.60;;;36.50;41.90;;;;;;5116987;28;20020;-68
2023/08/25 09:10:33;;;;;;;15.18;9.23;;;36.50;42.20;;;;;;5116702;28;20452;-68
2023/08/25 09:12:59;;;;;;;16.45;9.40;;;36.50;42.40;;;;;;5116441;28;20065;-68
2023/08/25 09:15:27;;;;;;;11.13;8.27;;;36.60;42.50;;;;;;5116316;28;20016;-68
2023/08/25 09:18:03;;;;;;;12.45;8.70;;;36.60;42.30;;;;;;5115309;28;20028;-68
2023/08/25 09:20:30;;;;;;;11.88;8.50;;;36.80;42.10;;;;;;5116751;28;20020;-68
2023/08/25 09:22:57;;;;;;;16.45;9.18;;;36.80;42.00;;;;;;5116394;28;20084;-68
2023/08/25 09:25:24;;;;;;;14.00;9.32;;;36.70;42.00;;;;;;5116735;28;20145;-68
2023/08/25 09:28:00;;;;;;;14.27;9.10;;;36.60;42.10;;;;;;5115137;28;20156;-68
2023/08/25 09:30:40;;;;;;;14.63;9.68;;;36.60;42.40;;;;;;5116356;28;20080;-68
2023/08/25 09:33:13;;;;;;;15.57;8.75;;;36.50;42.60;;;;;;5114997;28;20034;-68
2023/08/25 09:35:40;;;;;;;12.40;8.52;;;36.50;42.80;;;;;;5116569;28;20030;-68
2023/08/25 09:38:09;;;;;;;14.20;9.73;;;36.60;42.80;;;;;;5115919;28;20024;-68
2023/08/25 09:40:35;;;;;;;15.38;9.57;;;36.70;42.50;;;;;;5115955;28;20027;-68
2023/08/25 09:43:04;;;;;;;13.63;9.40;;;36.60;42.90;;;;;;5116394;28;20032;-68
2023/08/25 09:45:32;;;;;;;17.52;9.50;;;36.60;43.20;;;;;;5116091;28;20027;-68
2023/08/25 09:48:11;;;;;;;15.38;9.35;;;36.60;43.10;;;;;;5116083;28;20028;-68
2023/08/25 09:50:42;;;;;;;15.85;10.18;;;36.70;43.20;;;;;;5115522;28;20073;-68
2023/08/25 09:53:10;;;;;;;15.88;9.95;;;36.60;42.80;;;;;;5115915;28;20027;-69
2023/08/25 09:55:37;;;;;;;15.38;9.35;;;36.60;43.00;;;;;;5114678;28;20491;-68
2023/08/25 09:58:08;;;;;;;13.60;9.75;;;36.50;43.10;;;;;;5115861;28;20027;-67
2023/08/25 10:00:37;;;;;;;12.98;9.57;;;36.50;43.10;;;;;;5116190;28;20333;-68
2023/08/25 10:03:11;;;;;;;14.43;9.95;;;36.60;43.00;;;;;;5115817;28;20031;-68
2023/08/25 10:05:38;;;;;;;14.20;9.13;;;36.50;43.00;;;;;;5115665;28;20045;-68
2023/08/25 10:08:06;;;;;;;13.18;9.38;;;36.60;43.10;;;;;;5115897;28;20023;-68
2023/08/25 10:10:36;;;;;;;14.18;10.38;;;36.70;43.10;;;;;;5115884;28;20340;-68
2023/08/25 10:13:06;;;;;;;13.50;9.32;;;36.60;42.80;;;;;;5115790;28;20153;-68
2023/08/25 10:15:33;;;;;;;13.20;9.30;;;36.60;42.80;;;;;;5115863;28;20023;-68
2023/08/25 10:18:02;;;;;;;12.60;8.93;;;36.60;43.00;;;;;;5115497;28;20027;-68
2023/08/25 10:20:29;;;;;;;15.15;9.43;;;36.60;43.40;;;;;;5115476;28;20058;-68
2023/08/25 10:22:57;;;;;;;12.50;9.40;;;36.50;43.50;;;;;;5115936;28;20015;-68
2023/08/25 10:25:27;;;;;;;13.10;8.98;;;36.50;43.40;;;;;;5115772;28;20054;-68
2023/08/25 10:27:55;;;;;;;18.08;10.23;;;36.60;43.10;;;;;;5119803;28;20032;-68
2023/08/25 10:30:21;;;;;;;13.52;9.27;;;36.60;42.90;;;;;;5119510;28;20019;-68
2023/08/25 10:32:55;;;;;;;14.60;9.45;;;36.50;42.80;;;;;;5119582;28;20034;-68
2023/08/25 10:35:43;;;;;;;16.33;9.45;;;36.50;42.80;;;;;;5119943;28;20019;-68
2023/08/25 10:38:18;;;;;;;13.75;9.63;;;36.40;42.90;;;;;;5119179;28;20441;-68
2023/08/25 10:40:56;;;;;;;12.07;9.50;;;36.40;43.00;;;;;;5118263;28;20027;-68
2023/08/25 10:43:32;;;;;;;12.10;9.02;;;36.40;43.20;;;;;;5119357;28;20027;-68
2023/08/25 10:46:06;;;;;;;13.75;9.10;;;36.40;43.50;;;;;;5119458;28;20019;-68
2023/08/25 10:48:32;;;;;;;13.35;9.52;;;36.40;43.30;;;;;;5119694;28;20031;-68
2023/08/25 10:51:11;;;;;;;14.60;10.13;;;36.40;43.30;;;;;;5118829;28;20429;-68
2023/08/25 10:53:41;;;;;;;15.00;9.10;;;36.40;43.20;;;;;;5119346;28;20456;-68
2023/08/25 10:56:22;;;;;;;16.17;10.57;;;36.50;43.30;;;;;;5119506;28;20059;-68
2023/08/25 10:59:11;;;;;;;13.40;10.20;;;36.60;43.10;;;;;;5119434;28;20028;-68
2023/08/25 11:01:38;;;;;;;13.98;9.88;;;36.50;43.00;;;;;;5118624;28;20024;-68
2023/08/25 11:04:12;;;;;;;13.75;9.95;;;36.40;43.10;;;;;;5117755;28;20020;-68
2023/08/25 11:06:45;;;;;;;15.05;9.10;;;36.40;43.50;;;;;;5118992;28;20148;-68
2023/08/25 11:09:32;;;;;;;12.10;10.15;;;36.40;43.50;;;;;;5119240;28;20432;-68
2023/08/25 11:12:06;;;;;;;12.23;10.20;;;36.40;43.30;;;;;;5118675;28;20023;-68
2023/08/25 11:14:39;;;;;;;15.75;8.90;;;36.40;43.10;;;;;;5118810;28;20042;-68
2023/08/25 11:17:07;;;;;;;13.25;9.52;;;36.30;42.90;;;;;;5118507;28;20049;-68
2023/08/25 11:19:39;;;;;;;12.27;9.20;;;36.30;42.60;;;;;;5117448;28;20333;-68
2023/08/25 11:22:12;;;;;;;14.32;9.50;;;36.30;42.70;;;;;;5117581;28;20076;-68
2023/08/25 11:24:38;;;;;;;13.63;8.77;;;36.40;42.60;;;;;;5117379;28;20387;-68
2023/08/25 11:27:05;;;;;;;12.95;9.13;;;36.40;42.50;;;;;;5118373;28;20027;-68
2023/08/25 11:29:32;;;;;;;11.45;9.55;;;36.50;41.80;;;;;;5118228;28;20063;-68
2023/08/25 11:31:59;;;;;;;12.95;8.88;;;36.50;41.70;;;;;;5117360;28;20077;-68
2023/08/25 11:34:28;;;;;;;11.77;9.15;;;36.40;41.80;;;;;;5118076;28;20455;-68
2023/08/25 11:36:54;;;;;;;11.48;8.90;;;36.50;41.70;;;;;;5116646;28;20038;-68
2023/08/25 11:39:20;;;;;;;10.43;7.82;;;36.50;41.50;;;;;;5117919;28;20031;-68
2023/08/25 11:41:46;;;;;;;14.23;8.40;;;36.50;41.30;;;;;;5118019;28;20024;-68
2023/08/25 11:44:14;;;;;;;11.90;8.45;;;36.50;40.80;;;;;;5116943;28;20019;-68
2023/08/25 11:46:41;;;;;;;8.43;7.22;;;36.50;40.50;;;;;;5118194;28;20047;-68
2023/08/25 11:49:07;;;;;;;11.40;8.40;;;36.50;40.00;;;;;;5117865;28;20027;-68
2023/08/25 11:51:35;;;;;;;11.63;8.32;;;36.60;39.80;;;;;;5118069;28;20062;-68
2023/08/25 11:54:03;;;;;;;10.45;8.50;;;36.60;40.00;;;;;;5117646;28;20031;-68
2023/08/25 11:56:30;;;;;;;11.73;8.30;;;36.60;40.40;;;;;;5118007;28;20031;-68
2023/08/25 11:58:56;;;;;;;10.23;8.60;;;36.60;40.80;;;;;;5118123;28;20035;-68
2023/08/25 12:01:22;;;;;;;11.48;9.25;;;36.60;41.20;;;;;;5117930;28;20452;-67
2023/08/25 12:03:48;;;;;;;13.85;9.15;;;36.60;41.40;;;;;;5117568;28;20466;-68
2023/08/25 12:06:15;;;;;;;10.60;8.82;;;36.60;41.60;;;;;;5117561;28;20027;-68
2023/08/25 12:08:41;;;;;;;12.50;8.43;;;36.70;41.90;;;;;;5117434;28;20070;-68
2023/08/25 12:11:10;;;;;;;13.15;9.30;;;36.70;41.70;;;;;;5117993;28;20038;-68
2023/08/25 12:13:41;;;;;;;10.73;8.40;;;36.70;41.50;;;;;;5117244;28;20057;-68
2023/08/25 12:16:07;;;;;;;12.00;8.75;;;36.60;41.40;;;;;;5117668;28;20073;-68
2023/08/25 12:18:34;;;;;;;13.68;9.00;;;36.60;40.60;;;;;;5117494;28;20123;-68
2023/08/25 12:21:05;;;;;;;10.63;7.95;;;36.50;40.60;;;;;;5117771;28;20055;-68
2023/08/25 12:23:41;;;;;;;10.27;7.83;;;36.50;40.60;;;;;;5117142;28;20012;-68
2023/08/25 12:26:11;;;;;;;10.60;7.82;;;36.50;40.60;;;;;;5117379;28;20037;-68
2023/08/25 12:28:38;;;;;;;11.07;7.93;;;36.50;40.40;;;;;;5117406;28;20092;-68
2023/08/25 12:31:04;;;;;;;9.02;7.40;;;36.60;40.00;;;;;;5116977;28;20039;-68
2023/08/25 12:33:38;;;;;;;11.23;7.22;;;36.50;40.00;;;;;;5117492;28;20261;-68
2023/08/25 12:36:05;;;;;;;9.40;7.45;;;36.50;39.50;;;;;;5115968;28;20023;-68